createdAt,value
2023-01-15T00:02:16.749Z,9.11
2023-01-15T00:04:44.202Z,9.19
2023-01-15T00:07:11.223Z,9.17
2023-01-15T00:09:38.389Z,9.20
2023-01-15T00:12:05.790Z,9.26
2023-01-15T00:14:32.929Z,9.35
2023-01-15T00:16:59.883Z,9.36
2023-01-15T00:19:26.999Z,9.33
2023-01-15T00:21:54.269Z,9.35
2023-01-15T00:24:39.977Z,9.28
2023-01-15T00:27:29.458Z,9.38
2023-01-15T00:29:56.867Z,9.38
2023-01-15T00:32:23.770Z,9.45
2023-01-15T00:34:50.957Z,9.55
2023-01-15T00:37:17.929Z,9.58
2023-01-15T00:39:45.183Z,9.53
2023-01-15T00:42:12.827Z,9.56
2023-01-15T00:44:40.221Z,9.67
2023-01-15T00:47:09.100Z,9.69
2023-01-15T00:49:36.295Z,9.61
2023-01-15T00:52:03.178Z,9.58
2023-01-15T00:54:30.658Z,9.61
2023-01-15T00:56:57.557Z,9.65
2023-01-15T00:59:24.847Z,9.72
2023-01-15T01:01:52.107Z,9.78
2023-01-15T01:04:19.447Z,9.63
2023-01-15T01:06:46.495Z,9.74
2023-01-15T01:09:16.185Z,9.82
2023-01-15T01:11:43.110Z,9.78
2023-01-15T01:14:12.228Z,9.75
2023-01-15T01:16:42.080Z,9.79
2023-01-15T01:19:17.900Z,9.81
2023-01-15T01:21:45.776Z,9.85
2023-01-15T01:24:17.958Z,9.74
2023-01-15T01:26:46.018Z,9.67
2023-01-15T01:29:20.818Z,9.81
2023-01-15T01:31:48.482Z,9.89
2023-01-15T01:34:15.742Z,9.80
2023-01-15T01:36:44.949Z,9.88
2023-01-15T01:39:19.618Z,9.91
2023-01-15T01:41:48.013Z,9.97
2023-01-15T01:44:33.529Z,9.92
2023-01-15T01:47:14.982Z,9.98
2023-01-15T01:49:46.470Z,10.03
2023-01-15T01:52:27.038Z,9.91
2023-01-15T01:54:54.457Z,10.00
2023-01-15T01:57:23.485Z,10.01
2023-01-15T01:59:51.296Z,10.05
2023-01-15T02:02:23.067Z,10.13
2023-01-15T02:04:51.351Z,10.14
2023-01-15T02:07:18.334Z,10.19
2023-01-15T02:09:46.051Z,10.24
2023-01-15T02:12:28.398Z,10.17
2023-01-15T02:15:32.048Z,10.17
2023-01-15T02:18:19.069Z,10.12
2023-01-15T02:20:58.215Z,10.24
2023-01-15T02:23:53.059Z,10.35
2023-01-15T02:26:58.826Z,10.40
2023-01-15T02:29:37.732Z,10.47
2023-01-15T02:32:13.843Z,10.53
2023-01-15T02:34:51.703Z,10.47
2023-01-15T02:37:27.454Z,10.57
2023-01-15T02:39:59.773Z,10.55
2023-01-15T02:42:30.683Z,10.58
2023-01-15T02:45:04.068Z,10.67
2023-01-15T02:47:38.233Z,10.65
2023-01-15T02:50:11.272Z,10.60
2023-01-15T02:52:47.196Z,10.67
2023-01-15T02:55:31.188Z,10.60
2023-01-15T02:58:07.463Z,10.63
2023-01-15T03:00:43.318Z,10.66
2023-01-15T03:03:31.231Z,10.63
2023-01-15T03:06:08.715Z,10.61
2023-01-15T03:08:36.416Z,10.61
2023-01-15T03:11:15.715Z,10.58
2023-01-15T03:13:42.826Z,10.65
2023-01-15T03:16:40.052Z,10.57
2023-01-15T03:19:47.823Z,10.56
2023-01-15T03:22:44.284Z,10.54
2023-01-15T03:25:27.472Z,10.62
2023-01-15T03:28:00.141Z,10.62
2023-01-15T03:30:27.515Z,10.56
2023-01-15T03:32:55.478Z,10.60
2023-01-15T03:35:49.708Z,10.61
2023-01-15T03:38:21.428Z,10.66
2023-01-15T03:41:10.116Z,10.68
2023-01-15T03:43:50.814Z,10.63
2023-01-15T03:46:35.729Z,10.61
2023-01-15T03:49:13.666Z,10.69
2023-01-15T03:51:54.518Z,10.57
2023-01-15T03:54:53.132Z,10.54
2023-01-15T03:57:36.959Z,10.61
2023-01-15T04:00:22.639Z,10.67
2023-01-15T04:02:54.527Z,10.60
2023-01-15T04:05:24.254Z,10.66
2023-01-15T04:07:54.644Z,10.57
2023-01-15T04:10:21.687Z,10.58
2023-01-15T04:12:49.451Z,10.57
2023-01-15T04:15:17.323Z,10.59
2023-01-15T04:17:44.573Z,10.57
2023-01-15T04:20:13.177Z,10.66
2023-01-15T04:22:40.579Z,10.58
2023-01-15T04:25:08.963Z,10.52
2023-01-15T04:27:36.391Z,10.57
2023-01-15T04:30:03.678Z,10.63
2023-01-15T04:32:30.763Z,10.79
2023-01-15T04:34:57.668Z,10.75
2023-01-15T04:37:24.811Z,10.63
2023-01-15T04:39:51.865Z,10.77
2023-01-15T04:42:37.561Z,10.80
2023-01-15T04:45:04.839Z,10.75
2023-01-15T04:47:32.007Z,10.91
2023-01-15T04:49:58.901Z,10.93
2023-01-15T04:52:26.145Z,10.88
2023-01-15T04:54:55.908Z,10.92
2023-01-15T04:57:23.031Z,10.86
2023-01-15T04:59:49.968Z,10.86
2023-01-15T05:02:17.562Z,10.91
2023-01-15T05:04:44.720Z,10.95
2023-01-15T05:07:11.900Z,10.88
2023-01-15T05:09:38.972Z,10.91
2023-01-15T05:12:06.436Z,10.81
2023-01-15T05:14:33.327Z,10.88
2023-01-15T05:17:00.551Z,10.86
2023-01-15T05:19:27.608Z,10.79
2023-01-15T05:21:54.852Z,10.66
2023-01-15T05:24:21.796Z,10.71
2023-01-15T05:26:48.939Z,10.70
2023-01-15T05:29:16.115Z,10.85
2023-01-15T05:31:45.310Z,10.88
2023-01-15T05:34:13.247Z,10.65
2023-01-15T05:36:40.957Z,10.82
2023-01-15T05:39:08.286Z,10.69
2023-01-15T05:41:51.546Z,10.69
2023-01-15T05:44:20.672Z,10.65
2023-01-15T05:46:49.408Z,10.64
2023-01-15T05:49:22.392Z,10.60
2023-01-15T05:51:51.001Z,10.55
2023-01-15T05:54:24.894Z,10.58
2023-01-15T05:56:53.308Z,10.51
2023-01-15T05:59:24.624Z,10.59
2023-01-15T06:01:52.956Z,10.68
2023-01-15T06:04:25.084Z,10.58
2023-01-15T06:06:56.549Z,10.55
2023-01-15T06:09:24.746Z,10.40
2023-01-15T06:11:53.700Z,10.56
2023-01-15T06:14:21.015Z,10.62
2023-01-15T06:16:48.171Z,10.70
2023-01-15T06:19:15.412Z,10.68
2023-01-15T06:21:42.795Z,10.72
2023-01-15T06:24:09.864Z,10.84
2023-01-15T06:26:39.674Z,10.68
2023-01-15T06:29:06.824Z,10.69
2023-01-15T06:31:34.389Z,10.62
2023-01-15T06:34:01.415Z,10.77
2023-01-15T06:36:29.796Z,10.72
2023-01-15T06:38:56.972Z,10.71
2023-01-15T06:41:45.542Z,10.72
2023-01-15T06:44:35.467Z,10.70
2023-01-15T06:47:23.018Z,10.66
2023-01-15T06:49:57.847Z,10.69
2023-01-15T06:52:28.526Z,10.70
2023-01-15T06:54:55.998Z,10.61
2023-01-15T06:57:23.353Z,10.69
2023-01-15T06:59:51.338Z,10.74
2023-01-15T07:02:19.349Z,10.85
2023-01-15T07:04:48.092Z,10.87
2023-01-15T07:07:18.572Z,10.73
2023-01-15T07:09:45.758Z,10.74
2023-01-15T07:12:13.206Z,10.73
2023-01-15T07:14:40.205Z,10.83
2023-01-15T07:17:07.426Z,10.74
2023-01-15T07:19:34.384Z,10.95
2023-01-15T07:22:01.732Z,10.89
2023-01-15T07:24:28.640Z,10.92
2023-01-15T07:26:55.959Z,10.96
2023-01-15T07:29:23.483Z,10.85
2023-01-15T07:31:51.612Z,10.89
2023-01-15T07:34:19.026Z,10.87
2023-01-15T07:36:46.383Z,10.87
2023-01-15T07:39:13.498Z,10.97
2023-01-15T07:41:59.803Z,10.96
2023-01-15T07:44:45.612Z,10.88
2023-01-15T07:47:44.080Z,10.85
2023-01-15T07:50:24.537Z,11.05
2023-01-15T07:52:53.403Z,10.92
2023-01-15T07:55:22.129Z,10.95
2023-01-15T07:57:49.463Z,11.03
2023-01-15T08:00:22.921Z,11.00
2023-01-15T08:02:50.944Z,11.06
2023-01-15T08:05:19.222Z,10.87
2023-01-15T08:07:47.373Z,11.00
2023-01-15T08:10:14.668Z,10.98
2023-01-15T08:13:00.836Z,11.10
2023-01-15T08:15:38.907Z,11.11
2023-01-15T08:18:07.282Z,11.20
2023-01-15T08:20:36.447Z,11.15
2023-01-15T08:23:04.063Z,11.13
2023-01-15T08:25:31.126Z,11.25
2023-01-15T08:28:03.262Z,11.30
2023-01-15T08:30:30.405Z,11.32
2023-01-15T08:33:03.301Z,11.17
2023-01-15T08:35:34.248Z,11.16
2023-01-15T08:38:06.715Z,11.32
2023-01-15T08:40:57.653Z,11.32
2023-01-15T08:43:27.377Z,11.31
2023-01-15T08:46:01.783Z,11.29
2023-01-15T08:48:31.966Z,11.43
2023-01-15T08:50:59.402Z,11.34
2023-01-15T08:53:26.736Z,11.29
2023-01-15T08:55:53.720Z,11.30
2023-01-15T08:58:20.994Z,11.28
2023-01-15T09:00:48.722Z,11.30
2023-01-15T09:03:16.069Z,11.42
2023-01-15T09:05:43.154Z,11.49
2023-01-15T09:08:10.346Z,11.59
2023-01-15T09:10:38.540Z,11.59
2023-01-15T09:13:05.865Z,11.55
2023-01-15T09:15:34.000Z,11.59
2023-01-15T09:18:01.148Z,11.58
2023-01-15T09:20:28.090Z,11.64
2023-01-15T09:22:55.342Z,11.71
2023-01-15T09:25:24.407Z,11.72
2023-01-15T09:27:55.125Z,11.79
2023-01-15T09:30:22.839Z,11.74
2023-01-15T09:32:50.135Z,11.81
2023-01-15T09:35:17.200Z,11.87
2023-01-15T09:37:44.463Z,11.91
2023-01-15T09:40:57.610Z,11.87
2023-01-15T09:43:54.739Z,11.88
2023-01-15T09:46:46.747Z,11.91
2023-01-15T09:49:49.967Z,11.88
2023-01-15T09:52:22.745Z,11.84
2023-01-15T09:55:15.534Z,11.87
2023-01-15T09:57:46.430Z,11.91
2023-01-15T10:00:24.745Z,11.88
2023-01-15T10:02:59.142Z,11.81
2023-01-15T10:05:41.706Z,11.92
2023-01-15T10:08:34.737Z,11.96
2023-01-15T10:11:44.761Z,11.95
2023-01-15T10:14:31.402Z,12.03
2023-01-15T10:16:58.695Z,11.99
2023-01-15T10:19:31.879Z,12.08
2023-01-15T10:22:27.762Z,12.18
2023-01-15T10:25:00.581Z,12.11
2023-01-15T10:27:33.492Z,12.17
2023-01-15T10:30:37.423Z,12.13
2023-01-15T10:33:40.349Z,12.23
2023-01-15T10:36:37.180Z,12.18
2023-01-15T10:39:28.925Z,12.20
2023-01-15T10:42:52.458Z,12.17
2023-01-15T10:45:50.983Z,12.06
2023-01-15T10:48:34.904Z,12.02
2023-01-15T10:51:14.851Z,11.75
2023-01-15T10:53:53.805Z,11.78
2023-01-15T10:56:43.129Z,11.84
2023-01-15T10:59:22.460Z,11.71
2023-01-15T11:01:55.887Z,11.60
2023-01-15T11:04:25.819Z,11.65
2023-01-15T11:06:53.167Z,11.71
2023-01-15T11:09:24.211Z,11.72
2023-01-15T11:12:03.972Z,11.76
2023-01-15T11:15:02.485Z,11.79
2023-01-15T11:18:00.878Z,11.81
2023-01-15T11:20:46.117Z,11.84
2023-01-15T11:23:18.341Z,11.85
2023-01-15T11:25:54.715Z,11.87
2023-01-15T11:28:44.795Z,11.93
2023-01-15T11:31:13.713Z,11.99
2023-01-15T11:33:55.560Z,12.04
2023-01-15T11:36:26.963Z,12.08
2023-01-15T11:38:54.323Z,12.04
2023-01-15T11:41:45.803Z,12.07
2023-01-15T11:44:33.994Z,12.11
2023-01-15T11:47:20.305Z,12.11
2023-01-15T11:50:14.869Z,12.14
2023-01-15T11:52:57.342Z,12.06
2023-01-15T11:55:27.788Z,11.99
2023-01-15T11:57:57.551Z,11.98
2023-01-15T12:00:44.294Z,11.99
2023-01-15T12:03:22.723Z,11.97
2023-01-15T12:06:07.964Z,11.97
2023-01-15T12:08:52.950Z,11.89
2023-01-15T12:12:02.475Z,11.79
2023-01-15T12:15:06.090Z,11.51
2023-01-15T12:18:29.853Z,11.21
2023-01-15T12:21:04.687Z,10.90
2023-01-15T12:23:58.933Z,10.54
2023-01-15T12:26:33.022Z,10.43
2023-01-15T12:29:17.868Z,10.28
2023-01-15T12:31:55.160Z,10.19
2023-01-15T12:34:59.289Z,9.96
2023-01-15T12:37:36.873Z,9.84
2023-01-15T12:40:49.649Z,9.63
2023-01-15T12:43:45.247Z,9.61
2023-01-15T12:46:29.125Z,9.35
2023-01-15T12:49:25.450Z,9.23
2023-01-15T12:52:07.376Z,9.24
2023-01-15T12:54:49.598Z,9.21
2023-01-15T12:57:43.822Z,9.18
2023-01-15T13:00:43.626Z,9.16
2023-01-15T13:03:30.313Z,8.99
2023-01-15T13:06:06.585Z,8.95
2023-01-15T13:09:00.468Z,8.98
2023-01-15T13:11:27.729Z,8.95
2023-01-15T13:14:00.911Z,8.95
2023-01-15T13:16:42.408Z,9.01
2023-01-15T13:19:39.840Z,8.94
2023-01-15T13:22:17.668Z,9.04
2023-01-15T13:25:47.429Z,9.09
2023-01-15T13:28:31.522Z,9.08
2023-01-15T13:31:32.009Z,9.10
2023-01-15T13:34:07.363Z,9.14
2023-01-15T13:36:45.641Z,9.17
2023-01-15T13:39:27.911Z,9.06
2023-01-15T13:42:14.585Z,9.16
2023-01-15T13:44:53.106Z,9.26
2023-01-15T13:47:27.903Z,9.34
2023-01-15T13:50:00.440Z,9.39
2023-01-15T13:52:32.673Z,9.38
2023-01-15T13:55:12.707Z,9.41
2023-01-15T13:57:42.493Z,9.44
2023-01-15T14:00:34.045Z,9.43
2023-01-15T14:03:23.568Z,9.44
2023-01-15T14:06:01.100Z,9.46
2023-01-15T14:08:37.531Z,9.50
2023-01-15T14:11:04.921Z,9.49
2023-01-15T14:14:09.462Z,9.47
2023-01-15T14:17:09.664Z,9.35
2023-01-15T14:20:12.839Z,9.04
2023-01-15T14:23:25.552Z,9.08
2023-01-15T14:26:33.372Z,8.97
2023-01-15T14:29:40.514Z,8.91
2023-01-15T14:32:27.287Z,8.93
2023-01-15T14:34:58.392Z,9.00
2023-01-15T14:37:46.424Z,9.01
2023-01-15T14:40:34.607Z,9.06
2023-01-15T14:43:11.155Z,9.15
2023-01-15T14:45:46.566Z,9.11
2023-01-15T14:48:29.056Z,9.14
2023-01-15T14:51:26.603Z,9.12
2023-01-15T14:54:06.545Z,9.16
2023-01-15T14:56:44.791Z,9.17
2023-01-15T14:59:26.935Z,9.05
2023-01-15T15:02:15.975Z,9.04
2023-01-15T15:04:54.040Z,9.00
2023-01-15T15:07:25.741Z,9.06
2023-01-15T15:10:25.703Z,8.97
2023-01-15T15:13:27.963Z,8.91
2023-01-15T15:16:26.954Z,8.91
2023-01-15T15:19:02.600Z,9.00
2023-01-15T15:21:37.559Z,9.04
2023-01-15T15:24:35.214Z,8.98
2023-01-15T15:27:24.282Z,9.02
2023-01-15T15:29:51.305Z,9.04
2023-01-15T15:32:25.136Z,9.09
2023-01-15T15:34:55.039Z,9.11
2023-01-15T15:37:28.762Z,9.12
2023-01-15T15:40:04.174Z,9.08
2023-01-15T15:43:01.741Z,8.98
2023-01-15T15:45:50.030Z,8.98
2023-01-15T15:48:43.435Z,9.02
2023-01-15T15:51:49.972Z,8.88
2023-01-15T15:54:23.501Z,8.88
2023-01-15T15:57:02.192Z,8.93
2023-01-15T15:59:46.037Z,8.95
2023-01-15T16:02:35.373Z,8.87
2023-01-15T16:05:21.479Z,8.72
2023-01-15T16:07:48.446Z,8.89
2023-01-15T16:10:34.395Z,8.93
2023-01-15T16:13:06.759Z,8.97
2023-01-15T16:15:41.065Z,8.72
2023-01-15T16:18:24.256Z,8.49
2023-01-15T16:20:52.226Z,8.68
2023-01-15T16:23:29.447Z,8.58
2023-01-15T16:26:15.896Z,8.49
2023-01-15T16:28:53.673Z,8.47
2023-01-15T16:31:22.962Z,8.54
2023-01-15T16:34:20.214Z,8.61
2023-01-15T16:36:47.906Z,8.64
2023-01-15T16:39:45.286Z,8.58
2023-01-15T16:42:37.169Z,8.46
2023-01-15T16:45:24.973Z,8.37
2023-01-15T16:48:08.561Z,8.42
2023-01-15T16:50:38.830Z,8.45
2023-01-15T16:53:27.134Z,8.49
2023-01-15T16:55:57.061Z,8.45
2023-01-15T16:58:38.429Z,8.45
2023-01-15T17:01:37.817Z,8.46
2023-01-15T17:04:23.933Z,8.54
2023-01-15T17:07:08.567Z,8.52
2023-01-15T17:09:38.125Z,8.55
2023-01-15T17:12:36.011Z,8.43
2023-01-15T17:15:15.289Z,8.44
2023-01-15T17:17:44.887Z,8.33
2023-01-15T17:20:14.900Z,8.34
2023-01-15T17:22:47.562Z,8.35
2023-01-15T17:25:26.222Z,8.30
2023-01-15T17:27:56.013Z,8.18
2023-01-15T17:30:31.267Z,7.93
2023-01-15T17:32:59.077Z,8.01
2023-01-15T17:35:38.812Z,7.99
2023-01-15T17:38:07.445Z,7.99
2023-01-15T17:40:35.041Z,8.08
2023-01-15T17:43:02.651Z,8.06
2023-01-15T17:45:33.091Z,7.92
2023-01-15T17:48:02.001Z,7.78
2023-01-15T17:50:29.249Z,7.79
2023-01-15T17:52:56.147Z,7.74
2023-01-15T17:55:42.920Z,7.82
2023-01-15T17:58:33.396Z,7.78
2023-01-15T18:01:24.056Z,7.83
2023-01-15T18:04:12.904Z,7.78
2023-01-15T18:06:47.238Z,7.60
2023-01-15T18:09:16.279Z,7.58
2023-01-15T18:11:43.491Z,7.71
2023-01-15T18:14:10.414Z,7.77
2023-01-15T18:16:39.020Z,7.62
2023-01-15T18:19:06.027Z,7.68
2023-01-15T18:21:37.237Z,7.73
2023-01-15T18:24:04.457Z,7.68
2023-01-15T18:26:31.607Z,7.69
2023-01-15T18:28:58.971Z,7.65
2023-01-15T18:31:26.292Z,7.65
2023-01-15T18:33:53.196Z,7.52
2023-01-15T18:36:20.358Z,7.54
2023-01-15T18:38:48.774Z,7.54
2023-01-15T18:41:36.307Z,7.53
2023-01-15T18:44:43.913Z,7.55
2023-01-15T18:47:15.307Z,7.55
2023-01-15T18:49:45.247Z,7.54
2023-01-15T18:52:34.199Z,7.55
2023-01-15T18:55:28.283Z,7.44
2023-01-15T18:57:57.092Z,7.51
2023-01-15T19:00:25.249Z,7.41
2023-01-15T19:02:52.811Z,7.05
2023-01-15T19:05:19.966Z,6.85
2023-01-15T19:07:47.985Z,6.96
2023-01-15T19:10:17.968Z,6.74
2023-01-15T19:12:45.382Z,6.87
2023-01-15T19:15:34.639Z,6.93
2023-01-15T19:18:21.339Z,6.96
2023-01-15T19:20:48.466Z,6.98
2023-01-15T19:23:15.676Z,6.95
2023-01-15T19:25:51.077Z,6.82
2023-01-15T19:28:21.872Z,6.79
2023-01-15T19:31:10.014Z,6.71
2023-01-15T19:33:38.030Z,6.75
2023-01-15T19:36:05.832Z,6.56
2023-01-15T19:38:36.917Z,6.38
2023-01-15T19:41:31.693Z,6.36
2023-01-15T19:44:18.027Z,6.14
2023-01-15T19:47:04.708Z,6.26
2023-01-15T19:49:56.196Z,6.25
2023-01-15T19:52:35.225Z,6.26
2023-01-15T19:55:10.862Z,6.20
2023-01-15T19:57:44.010Z,6.19
2023-01-15T20:00:19.765Z,6.15
2023-01-15T20:02:47.114Z,6.26
2023-01-15T20:05:16.213Z,6.26
2023-01-15T20:07:43.868Z,6.28
2023-01-15T20:10:16.013Z,6.38
2023-01-15T20:13:01.960Z,6.30
2023-01-15T20:15:30.486Z,6.28
2023-01-15T20:17:59.065Z,6.26
2023-01-15T20:20:27.084Z,6.35
2023-01-15T20:22:57.816Z,6.39
2023-01-15T20:25:27.518Z,6.41
2023-01-15T20:27:58.873Z,6.45
2023-01-15T20:30:27.632Z,6.53
2023-01-15T20:32:58.265Z,6.53
2023-01-15T20:35:31.428Z,6.50
2023-01-15T20:37:59.095Z,6.36
2023-01-15T20:40:26.992Z,6.36
2023-01-15T20:43:13.588Z,6.38
2023-01-15T20:45:41.244Z,6.34
2023-01-15T20:48:11.372Z,6.17
2023-01-15T20:51:02.673Z,6.13
2023-01-15T20:53:36.124Z,6.10
2023-01-15T20:56:13.199Z,6.17
2023-01-15T20:58:41.190Z,6.05
2023-01-15T21:01:10.919Z,6.06
2023-01-15T21:03:39.233Z,6.07
2023-01-15T21:06:08.514Z,6.10
2023-01-15T21:08:36.646Z,6.07
2023-01-15T21:11:04.266Z,6.00
2023-01-15T21:13:31.400Z,5.93
2023-01-15T21:16:03.143Z,5.88
2023-01-15T21:18:35.583Z,5.89
2023-01-15T21:21:23.071Z,5.91
2023-01-15T21:23:50.402Z,5.89
2023-01-15T21:26:17.721Z,5.90
2023-01-15T21:28:45.120Z,5.95
2023-01-15T21:31:14.450Z,5.94
2023-01-15T21:33:41.503Z,5.93
2023-01-15T21:36:14.712Z,6.00
2023-01-15T21:38:42.016Z,6.01
2023-01-15T21:41:48.590Z,5.94
2023-01-15T21:44:34.832Z,5.88
2023-01-15T21:47:06.119Z,5.91
2023-01-15T21:49:34.366Z,5.85
2023-01-15T21:52:05.515Z,5.90
2023-01-15T21:54:32.872Z,5.91
2023-01-15T21:57:00.258Z,5.92
2023-01-15T21:59:28.058Z,5.93
2023-01-15T22:01:57.561Z,5.90
2023-01-15T22:04:28.139Z,5.83
2023-01-15T22:06:56.482Z,5.85
2023-01-15T22:09:23.787Z,5.89
2023-01-15T22:11:52.585Z,5.89
2023-01-15T22:14:26.824Z,5.90
2023-01-15T22:16:56.722Z,5.89
2023-01-15T22:19:27.771Z,5.88
2023-01-15T22:22:02.444Z,5.90
2023-01-15T22:24:32.497Z,5.93
2023-01-15T22:27:02.215Z,5.85
2023-01-15T22:29:40.587Z,5.95
2023-01-15T22:32:11.672Z,5.98
2023-01-15T22:34:39.089Z,5.91
2023-01-15T22:37:06.581Z,5.81
2023-01-15T22:39:34.258Z,5.72
2023-01-15T22:42:19.664Z,5.79
2023-01-15T22:44:48.941Z,5.83
2023-01-15T22:47:17.630Z,5.74
2023-01-15T22:49:44.576Z,5.76
2023-01-15T22:52:12.180Z,5.83
2023-01-15T22:54:39.394Z,5.83
2023-01-15T22:57:06.641Z,5.79
2023-01-15T22:59:33.596Z,5.71
2023-01-15T23:02:00.954Z,5.61
2023-01-15T23:04:28.113Z,5.58
2023-01-15T23:06:55.349Z,5.52
2023-01-15T23:09:24.084Z,5.49
2023-01-15T23:11:51.744Z,5.56
2023-01-15T23:14:21.292Z,5.60
2023-01-15T23:16:49.660Z,5.47
2023-01-15T23:19:19.004Z,5.55
2023-01-15T23:21:46.251Z,5.57
2023-01-15T23:24:13.311Z,5.58
2023-01-15T23:26:40.861Z,5.62
2023-01-15T23:29:07.784Z,5.53
2023-01-15T23:31:35.162Z,5.65
2023-01-15T23:34:02.185Z,5.71
2023-01-15T23:36:29.469Z,5.62
2023-01-15T23:38:56.453Z,5.59
2023-01-15T23:41:44.117Z,5.59
2023-01-15T23:44:36.654Z,5.57
2023-01-15T23:47:05.146Z,5.62
2023-01-15T23:49:32.161Z,5.59
2023-01-15T23:51:59.700Z,5.50
2023-01-15T23:54:28.834Z,5.54
2023-01-15T23:57:00.926Z,5.53
2023-01-15T23:59:29.013Z,5.54
